x

Halibut Bank (46146) Wave Buoy

12:00 - Thu 31st Jul 2014 All times are PDT. -7 hours from GMT.

  • Sig Wave height 1.3ft
  • Peak Period 3s
  • Wind
    13mph, 16mph gusts
  • Sea Temp 69°f
  • Ar Temp 66°f
  • Sea Pressure 1019.7mb
  • Halibut Bank
  • Halibut Bank

More Historic Weather Station data

Upgrade to MSW Pro to gain access to the past 30 days of data for over 8000 Wavebouys and Weather Stations around the globe.

Join Pro

Comparision Forecast

View Surf forecast
   
Qui 07/31 12:00 1.3ft 3s 13 16 mph 1019.7mb 69f 66f
11:00 1.3ft 3s 13 16 mph 1019.8mb 69f 66f
10:00 1.3ft 4s 11 13 mph 1019.8mb 69f 65f
9:00 1.3ft 4s 13
mph
1020.3mb 69f 65f
8:00 1.3ft 4s 11 13 mph 1020.4mb 69f 65f
7:00 1.6ft 4s 11 13 mph 1020.2mb 69f 66f
6:00 1.6ft 4s 11 13 mph 1019.8mb 69f 67f
5:00 1.6ft 4s 13 16 mph 1019.5mb 69f 67f
4:00 1.6ft 4s 13 18 mph 1019.2mb 69f 68f
3:00 1.6ft 3s 18 22 mph 1018.9mb 70f 68f
2:00 1.3ft 3s 18 20 mph 1018.8mb 71f 69f
1:00 1.3ft 3s 16 18 mph 1018.8mb 71f 70f
12:00 1ft 3s 16 18 mph 1018.4mb 72f 71f
Qua 07/30 11:00 0.7ft 2s 18 20 mph 1017.9mb 71f 71f
10:00 0.3ft 3s 9 11 mph 1018.1mb 72f 72f
9:00 0.3ft 3s 9
mph
1018mb 73f 71f
8:00 0.3ft 4s 7 9 mph 1018mb 73f 71f
7:00 0.3ft 5s 4
mph
1018.2mb 73f 71f
6:00 0.3ft 6s 2 4 mph 1018.5mb 73f 71f
5:00 0.7ft 4s  -  2 mph 1019mb 74f 70f
4:00 0.7ft 2s  -  2 mph 1019.6mb 72f 70f
3:00 0.7ft 3s  -  2 mph 1020.2mb 71f 69f
2:00 0.7ft 3s 2
mph
1020.6mb 72f 68f
1:00 0.7ft 3s 4 7 mph 1020.7mb 71f 66f
12:00 0.7ft 3s 7 9 mph 1020.8mb 70f 65f
11:00 1ft 3s 7 9 mph 1020.9mb 69f 65f
10:00 1ft 3s 9 13 mph 1020.9mb 69f 65f
9:00 1ft 3s 9 11 mph 1020.8mb 70f 65f
8:00 1ft 4s 9
mph
1020.6mb 69f 65f
7:00 1ft 3s 7 11 mph 1020.5mb 69f 65f
6:00 1ft 3s 4 7 mph 1019.9mb 69f 67f
5:00 1ft 4s 7
mph
1019.3mb 69f 68f
4:00 1ft 3s 16 20 mph 1018.9mb 70f 67f
3:00 1ft 3s 4 11 mph 1018.6mb 72f 69f
2:00 0.3ft 3s 9 11 mph 1018.5mb 71f 69f
1:00 0.3ft 2s 7 9 mph 1018.4mb 71f 70f
12:00 0.3ft 2s 7 9 mph 1017.9mb 72f 71f
Ter 07/29 11:00 0.3ft 6s 4 7 mph 1017.2mb 72f 71f
10:00 0.3ft 3s 4
mph
1017.1mb 72f 71f
9:00 0.3ft 6s 4
mph
1016.8mb 72f 71f
8:00 0.3ft 3s 2
mph
1016.7mb 72f 71f
7:00 0.3ft 6s 2 4 mph 1016.8mb 73f 72f
6:00 0.3ft 5s 4
mph
1017.2mb 73f 71f
5:00 0.3ft 6s 2 4 mph 1017.9mb 74f 71f
4:00 0.3ft 6s 2 4 mph 1018.5mb 74f 70f
3:00 0.3ft 3s 2 4 mph 1019.2mb 73f 70f
2:00 0.3ft 3s 4
mph
1019.8mb 72f 69f
1:00 0.3ft 3s 4 7 mph 1020.2mb 71f 68f
12:00 0.3ft 4s 7 9 mph 1020.3mb 71f 67f
11:00 0.3ft 3s 4
mph
1020.6mb 71f 67f
10:00 0.3ft 6s 4 7 mph 1020.4mb 70f 66f
9:00 0.3ft 3s 2 4 mph 1020.3mb 70f 67f
8:00 0.3ft 5s 4 7 mph 1020.3mb 69f 66f
7:00 0.3ft 3s 4 7 mph 1019.9mb 69f 67f
6:00 0.3ft 6s 4 7 mph 1019.6mb 68f 66f
5:00 0.3ft 2s 7 9 mph 1019.4mb 69f 66f
4:00 0.3ft 4s 7
mph
1019mb 69f 67f
3:00 0.3ft 2s 4
mph
1018.7mb 69f 68f
2:00 0.3ft 2s  -  2 mph 1018.4mb 69f 68f
1:00 0.3ft 4s 2 4 mph 1018.3mb 69f 68f
12:00 0.3ft 6s 2 4 mph 1018.1mb 69f 68f
Seg 07/28 11:00 0.3ft 4s 4 7 mph 1017.7mb 69f 68f
10:00 0.3ft 3s 7
mph
1017.5mb 70f 69f
9:00 0.3ft 6s 7
mph
1017.1mb 70f 69f
8:00 0.3ft 3s 4 7 mph 1017mb 71f 69f
7:00 0.3ft 6s 2 4 mph 1017.2mb 71f 70f
6:00 0.3ft 6s 4
mph
1017.5mb 71f 70f
5:00 0.3ft 6s 2 4 mph 1017.9mb 71f 71f
4:00 0.3ft 2s 7
mph
1018.3mb 70f 69f
3:00 0.3ft 2s 7
mph
1019mb 69f 68f
2:00 0.7ft 2s 7 9 mph 1019.5mb 69f 67f
1:00 0.7ft 3s 7
mph
1019.9mb 68f 67f
12:00 0.7ft 3s 9 11 mph 1020mb 68f 66f
11:00 0.7ft 3s 9 11 mph 1020.2mb 67f 65f
10:00 0.7ft 2s 9 11 mph 1020.2mb 66f 65f
9:00 0.7ft 3s 9 11 mph 1020.4mb 65f 65f
8:00 0.3ft 4s 4 7 mph 1020.4mb 65f 64f
7:00 0.3ft 3s 2
mph
1020.3mb 65f 64f
6:00 0.3ft 3s 2
mph
1020.1mb 65f 64f
5:00 0.3ft 6s 2
mph
1019.8mb 65f 64f
4:00 0.3ft 2s  -  mph 1019.5mb 65f 63f
3:00 0.3ft 2s  -  2 mph 1019.4mb 66f 64f
2:00 0.3ft 2s 2
mph
1019.2mb 66f 65f
1:00 0.3ft 2s 2 4 mph 1019.1mb 66f 65f
12:00 0.3ft 2s 7
mph
1018.9mb 66f 68f
Dom 07/27 11:00 0.7ft 2s 9 11 mph 1018.5mb 67f 68f
10:00 0.7ft 2s 13
mph
1018.2mb 67f 69f
9:00 0.7ft 2s 11 13 mph 1018.1mb 67f 69f